createdAt,value
2018-10-11T00:02:18.701Z,26.70
2018-10-11T00:04:45.990Z,26.03
2018-10-11T00:07:13.314Z,26.23
2018-10-11T00:09:40.622Z,27.40
2018-10-11T00:12:07.858Z,25.83
2018-10-11T00:14:35.115Z,26.07
2018-10-11T00:17:02.560Z,24.83
2018-10-11T00:19:29.830Z,24.87
2018-10-11T00:21:57.100Z,25.87
2018-10-11T00:24:24.321Z,26.57
2018-10-11T00:26:51.917Z,23.87
2018-10-11T00:29:19.213Z,24.97
2018-10-11T00:31:46.551Z,24.37
2018-10-11T00:34:13.801Z,23.33
2018-10-11T00:36:41.111Z,24.17
2018-10-11T00:39:08.581Z,24.30
2018-10-11T00:41:35.876Z,23.87
2018-10-11T00:44:03.260Z,22.23
2018-10-11T00:46:30.582Z,25.53
2018-10-11T00:48:57.836Z,23.80
2018-10-11T00:51:25.125Z,26.17
2018-10-11T00:53:52.408Z,27.90
2018-10-11T00:56:19.725Z,28.27
2018-10-11T00:58:47.017Z,25.13
2018-10-11T01:01:14.261Z,26.53
2018-10-11T01:03:41.545Z,24.30
2018-10-11T01:06:09.272Z,23.90
2018-10-11T01:08:36.524Z,24.00
2018-10-11T01:11:03.799Z,25.37
2018-10-11T01:13:31.096Z,24.90
2018-10-11T01:15:58.442Z,24.73
2018-10-11T01:18:25.788Z,25.07
2018-10-11T01:20:53.214Z,24.63
2018-10-11T01:23:20.447Z,24.47
2018-10-11T01:25:47.722Z,25.10
2018-10-11T01:28:15.005Z,24.50
2018-10-11T01:30:47.959Z,25.70
2018-10-11T01:33:15.189Z,24.80
2018-10-11T01:35:42.497Z,23.87
2018-10-11T01:38:09.812Z,23.90
2018-10-11T01:40:37.115Z,24.43
2018-10-11T01:43:05.382Z,25.63
2018-10-11T01:45:33.017Z,24.87
2018-10-11T01:48:00.333Z,24.70
2018-10-11T01:50:27.986Z,22.27
2018-10-11T01:52:56.034Z,25.93
2018-10-11T01:55:23.672Z,24.23
2018-10-11T01:57:50.967Z,25.13
2018-10-11T02:00:18.208Z,26.63
2018-10-11T02:02:45.488Z,26.03
2018-10-11T02:05:12.784Z,27.57
2018-10-11T02:07:40.041Z,26.53
2018-10-11T02:10:07.257Z,26.67
2018-10-11T02:12:34.518Z,27.33
2018-10-11T02:15:01.829Z,28.47
2018-10-11T02:17:29.088Z,26.57
2018-10-11T02:19:56.341Z,27.17
2018-10-11T02:22:23.710Z,26.20
2018-10-11T02:24:50.981Z,26.47
2018-10-11T02:27:18.256Z,25.83
2018-10-11T02:29:45.571Z,24.63
2018-10-11T02:32:13.076Z,25.53
2018-10-11T02:34:40.493Z,25.57
2018-10-11T02:37:08.037Z,24.93
2018-10-11T02:39:35.251Z,23.90
2018-10-11T02:42:02.546Z,24.10
2018-10-11T02:44:29.859Z,24.20
2018-10-11T02:46:57.137Z,22.70
2018-10-11T02:49:24.420Z,21.50
2018-10-11T02:51:51.642Z,20.97
2018-10-11T02:54:18.957Z,22.77
2018-10-11T02:56:46.248Z,23.97
2018-10-11T02:59:19.168Z,23.20
2018-10-11T03:01:46.439Z,23.87
2018-10-11T03:04:13.755Z,23.00
2018-10-11T03:06:41.046Z,25.03
2018-10-11T03:09:08.871Z,23.10
2018-10-11T03:11:36.572Z,22.47
2018-10-11T03:14:03.848Z,22.03
2018-10-11T03:16:31.141Z,23.07
2018-10-11T03:18:58.421Z,22.17
2018-10-11T03:21:25.657Z,23.30
2018-10-11T03:23:53.058Z,23.13
2018-10-11T03:26:20.365Z,22.90
2018-10-11T03:28:47.645Z,22.83
2018-10-11T03:31:14.870Z,21.10
2018-10-11T03:33:42.149Z,22.57
2018-10-11T03:36:09.436Z,20.97
2018-10-11T03:38:36.710Z,21.80
2018-10-11T03:41:03.917Z,22.27
2018-10-11T03:43:31.197Z,21.27
2018-10-11T03:45:58.501Z,22.70
2018-10-11T03:48:25.762Z,21.17
2018-10-11T03:50:52.988Z,21.67
2018-10-11T03:53:20.256Z,19.93
2018-10-11T03:55:47.525Z,21.13
2018-10-11T03:58:14.792Z,23.07
2018-10-11T04:00:42.051Z,24.50
2018-10-11T04:03:09.351Z,23.73
2018-10-11T04:05:36.669Z,22.43
2018-10-11T04:08:03.953Z,24.83
2018-10-11T04:10:31.117Z,24.93
2018-10-11T04:15:28.681Z,24.57
2018-10-11T04:17:55.900Z,25.73
2018-10-11T04:20:23.109Z,25.30
2018-10-11T04:22:50.332Z,24.13
2018-10-11T04:25:17.517Z,24.47
2018-10-11T04:27:44.780Z,25.13
2018-10-11T04:30:12.078Z,23.27
2018-10-11T04:32:39.281Z,24.30
2018-10-11T04:35:06.498Z,24.83
2018-10-11T04:37:33.762Z,22.63
2018-10-11T04:40:00.982Z,21.13
2018-10-11T04:42:28.200Z,22.63
2018-10-11T04:44:55.388Z,22.83
2018-10-11T04:47:22.644Z,20.60
2018-10-11T04:49:49.879Z,21.30
2018-10-11T04:52:17.108Z,21.50
2018-10-11T04:54:44.324Z,21.93
2018-10-11T04:57:11.600Z,20.70
2018-10-11T04:59:38.859Z,20.30
2018-10-11T05:02:06.103Z,23.00
2018-10-11T05:04:33.338Z,22.73
2018-10-11T05:07:00.578Z,22.57
2018-10-11T05:09:27.785Z,22.13
2018-10-11T05:11:55.024Z,23.47
2018-10-11T05:14:22.268Z,22.53
2018-10-11T05:16:49.445Z,21.93
2018-10-11T05:19:16.672Z,21.23
2018-10-11T05:21:43.832Z,20.63
2018-10-11T05:24:11.288Z,20.73
2018-10-11T05:26:38.552Z,20.37
2018-10-11T05:29:05.874Z,21.20
2018-10-11T05:31:33.118Z,19.80
2018-10-11T05:34:00.341Z,20.77
2018-10-11T05:36:27.553Z,21.90
2018-10-11T05:38:54.785Z,21.73
2018-10-11T05:41:21.985Z,21.97
2018-10-11T05:43:49.280Z,21.40
2018-10-11T05:46:22.389Z,22.07
2018-10-11T05:48:49.706Z,22.80
2018-10-11T05:51:17.133Z,21.73
2018-10-11T05:53:44.459Z,22.90
2018-10-11T05:56:11.676Z,22.83
2018-10-11T05:58:38.918Z,22.17
2018-10-11T06:01:06.141Z,21.93
2018-10-11T06:03:33.394Z,21.20
2018-10-11T06:06:00.628Z,21.60
2018-10-11T06:08:27.911Z,23.47
2018-10-11T06:10:55.097Z,24.63
2018-10-11T06:13:22.389Z,21.93
2018-10-11T06:15:49.647Z,21.67
2018-10-11T06:18:16.971Z,22.03
2018-10-11T06:20:44.249Z,22.03
2018-10-11T06:23:11.488Z,21.90
2018-10-11T06:25:38.752Z,19.47
2018-10-11T06:28:06.339Z,21.07
2018-10-11T06:30:34.079Z,20.03
2018-10-11T06:33:01.794Z,22.87
2018-10-11T06:35:29.056Z,21.73
2018-10-11T06:37:56.381Z,25.00
2018-10-11T06:40:23.692Z,21.97
2018-10-11T06:42:52.826Z,22.13
2018-10-11T06:45:20.057Z,20.53
2018-10-11T06:47:48.776Z,22.53
2018-10-11T06:50:16.078Z,21.37
2018-10-11T06:52:43.289Z,20.53
2018-10-11T06:55:10.528Z,22.23
2018-10-11T06:57:37.698Z,20.53
2018-10-11T07:00:04.942Z,21.10
2018-10-11T07:02:32.205Z,19.03
2018-10-11T07:04:59.462Z,18.77
2018-10-11T07:07:26.653Z,19.70
2018-10-11T07:09:53.825Z,20.60
2018-10-11T07:12:21.216Z,19.10
2018-10-11T07:14:48.425Z,19.17
2018-10-11T07:17:15.656Z,20.17
2018-10-11T07:19:43.037Z,18.93
2018-10-11T07:22:10.300Z,17.90
2018-10-11T07:24:37.551Z,17.17
2018-10-11T07:27:04.852Z,17.00
2018-10-11T07:29:32.071Z,15.10
2018-10-11T07:31:59.410Z,14.07
2018-10-11T07:34:26.663Z,14.17
2018-10-11T07:36:53.844Z,14.10
2018-10-11T07:39:21.061Z,14.60
2018-10-11T07:41:48.337Z,12.80
2018-10-11T07:44:15.556Z,12.70
2018-10-11T07:46:42.790Z,13.10
2018-10-11T07:49:09.992Z,11.83
2018-10-11T07:51:37.492Z,11.70
2018-10-11T07:54:04.734Z,11.43
2018-10-11T07:56:32.866Z,9.57
2018-10-11T07:59:00.504Z,9.63
2018-10-11T08:01:28.330Z,9.50
2018-10-11T08:03:55.735Z,8.73
2018-10-11T08:06:22.984Z,8.43
2018-10-11T08:08:50.350Z,9.10
2018-10-11T08:11:17.656Z,8.83
2018-10-11T08:13:44.740Z,8.73
2018-10-11T08:16:12.051Z,8.28
2018-10-11T08:18:39.205Z,7.87
2018-10-11T08:21:06.439Z,8.08
2018-10-11T08:23:34.130Z,8.95
2018-10-11T08:26:01.720Z,8.48
2018-10-11T08:28:28.510Z,8.85
2018-10-11T08:30:55.793Z,8.60
2018-10-11T08:33:23.029Z,8.30
2018-10-11T08:35:50.237Z,8.65
2018-10-11T08:38:17.459Z,8.40
2018-10-11T08:40:44.638Z,7.70
2018-10-11T08:43:11.839Z,7.87
2018-10-11T08:45:39.090Z,7.90
2018-10-11T08:48:06.590Z,8.05
2018-10-11T08:50:33.811Z,7.62
2018-10-11T08:53:01.056Z,7.40
2018-10-11T08:55:28.319Z,7.65
2018-10-11T08:57:55.497Z,7.58
2018-10-11T09:00:22.800Z,7.42
2018-10-11T09:02:50.026Z,8.10
2018-10-11T09:05:17.275Z,7.33
2018-10-11T09:07:44.507Z,7.08
2018-10-11T09:10:11.741Z,7.20
2018-10-11T09:12:38.994Z,7.75
2018-10-11T09:15:06.732Z,6.90
2018-10-11T09:17:33.977Z,6.62
2018-10-11T09:20:01.149Z,7.45
2018-10-11T09:22:28.356Z,7.25
2018-10-11T09:24:55.536Z,7.03
2018-10-11T09:27:22.748Z,7.08
2018-10-11T09:29:50.002Z,6.70
2018-10-11T09:32:17.261Z,7.00
2018-10-11T09:34:44.457Z,6.72
2018-10-11T09:37:11.714Z,6.95
2018-10-11T09:39:38.948Z,6.70
2018-10-11T09:42:06.198Z,7.00
2018-10-11T09:44:33.461Z,6.75
2018-10-11T09:47:00.709Z,7.55
2018-10-11T09:49:27.965Z,6.97
2018-10-11T09:51:55.197Z,6.50
2018-10-11T09:54:22.430Z,6.20
2018-10-11T09:57:36.079Z,6.53
2018-10-11T10:00:08.492Z,6.62
2018-10-11T10:02:35.729Z,5.90
2018-10-11T10:05:03.477Z,6.20
2018-10-11T10:07:30.723Z,6.40
2018-10-11T10:09:57.965Z,6.55
2018-10-11T10:12:25.149Z,6.62
2018-10-11T10:14:52.774Z,6.22
2018-10-11T10:17:20.334Z,6.40
2018-10-11T10:19:47.624Z,6.40
2018-10-11T10:22:14.878Z,6.55
2018-10-11T10:24:42.076Z,6.03
2018-10-11T10:27:09.442Z,5.42
2018-10-11T10:29:36.708Z,6.08
2018-10-11T10:32:04.243Z,6.20
2018-10-11T10:34:31.541Z,6.80
2018-10-11T10:36:58.801Z,5.90
2018-10-11T10:39:26.101Z,6.15
2018-10-11T10:41:53.406Z,6.22
2018-10-11T10:44:20.636Z,5.70
2018-10-11T10:46:47.811Z,5.78
2018-10-11T10:49:14.972Z,6.20
2018-10-11T10:51:42.221Z,6.17
2018-10-11T10:54:15.278Z,6.05
2018-10-11T10:56:42.552Z,6.10
2018-10-11T10:59:09.780Z,6.37
2018-10-11T11:01:37.026Z,5.85
2018-10-11T11:04:04.289Z,6.05
2018-10-11T11:06:31.605Z,6.05
2018-10-11T11:08:59.032Z,6.15
2018-10-11T11:11:26.264Z,6.40
2018-10-11T11:13:53.522Z,6.25
2018-10-11T11:16:20.702Z,6.25
2018-10-11T11:18:48.009Z,5.87
2018-10-11T11:21:15.292Z,5.78
2018-10-11T11:23:42.518Z,6.10
2018-10-11T11:26:09.741Z,5.33
2018-10-11T11:28:36.983Z,5.80
2018-10-11T11:31:04.316Z,6.17
2018-10-11T11:33:31.486Z,5.78
2018-10-11T11:35:58.703Z,5.72
2018-10-11T11:38:25.929Z,5.78
2018-10-11T11:40:53.145Z,5.58
2018-10-11T11:43:20.308Z,6.03
2018-10-11T11:45:47.533Z,5.67
2018-10-11T11:48:14.762Z,5.58
2018-10-11T11:50:42.005Z,5.80
2018-10-11T11:53:09.276Z,6.78
2018-10-11T11:55:36.466Z,6.00
2018-10-11T11:58:03.731Z,6.20
2018-10-11T12:00:30.905Z,5.67
2018-10-11T12:02:59.535Z,6.00
2018-10-11T12:05:26.769Z,5.80
2018-10-11T12:07:53.931Z,5.50
2018-10-11T12:10:21.537Z,5.70
2018-10-11T12:12:56.548Z,5.37
2018-10-11T12:15:24.926Z,4.97
2018-10-11T12:17:56.172Z,5.30
2018-10-11T12:20:24.809Z,4.97
2018-10-11T12:22:52.538Z,5.17
2018-10-11T12:25:19.797Z,4.78
2018-10-11T12:27:46.984Z,5.12
2018-10-11T12:30:14.569Z,5.03
2018-10-11T12:32:41.897Z,5.30
2018-10-11T12:35:09.120Z,5.00
2018-10-11T12:37:36.328Z,4.92
2018-10-11T12:40:03.818Z,4.67
2018-10-11T12:42:31.279Z,4.95
2018-10-11T12:44:58.506Z,5.25
2018-10-11T12:47:25.725Z,5.15
2018-10-11T12:49:52.977Z,5.03
2018-10-11T12:52:20.242Z,4.40
2018-10-11T12:54:47.457Z,4.72
2018-10-11T12:57:17.167Z,5.17
2018-10-11T12:59:41.913Z,4.83
2018-10-11T13:02:09.156Z,4.30
2018-10-11T13:04:36.329Z,5.03
2018-10-11T13:07:03.580Z,5.17
2018-10-11T13:09:30.904Z,4.92
2018-10-11T13:11:58.132Z,5.55
2018-10-11T13:14:25.394Z,5.05
2018-10-11T13:16:52.691Z,4.45
2018-10-11T13:19:19.913Z,5.05
2018-10-11T13:21:47.093Z,5.35
2018-10-11T13:24:14.308Z,4.95
2018-10-11T13:26:41.537Z,4.90
2018-10-11T13:29:08.805Z,4.83
2018-10-11T13:31:36.086Z,4.53
2018-10-11T13:34:03.327Z,4.92
2018-10-11T13:36:30.568Z,4.83
2018-10-11T13:38:57.793Z,4.85
2018-10-11T13:41:25.250Z,4.50
2018-10-11T13:43:52.329Z,4.45
2018-10-11T13:46:19.515Z,4.60
2018-10-11T13:48:46.747Z,5.20
2018-10-11T13:51:13.969Z,4.53
2018-10-11T13:53:41.336Z,4.83
2018-10-11T13:56:08.420Z,4.62
2018-10-11T13:58:35.797Z,4.80
2018-10-11T14:01:03.185Z,4.87
2018-10-11T14:03:30.392Z,4.80
2018-10-11T14:05:57.601Z,5.20
2018-10-11T14:08:24.845Z,5.55
2018-10-11T14:10:52.052Z,5.62
2018-10-11T14:13:20.688Z,5.40
2018-10-11T14:15:46.506Z,5.00
2018-10-11T14:18:13.969Z,5.17
2018-10-11T14:20:41.345Z,4.87
2018-10-11T14:23:08.569Z,4.65
2018-10-11T14:25:35.767Z,4.92
2018-10-11T14:28:03.425Z,4.80
2018-10-11T14:30:30.661Z,4.78
2018-10-11T14:32:57.900Z,5.17
2018-10-11T14:35:25.146Z,4.80
2018-10-11T14:37:52.406Z,5.05
2018-10-11T14:40:19.584Z,4.70
2018-10-11T14:42:46.818Z,4.60
2018-10-11T14:45:14.154Z,4.40
2018-10-11T14:47:41.407Z,4.60
2018-10-11T14:50:08.705Z,4.22
2018-10-11T14:52:35.880Z,4.60
2018-10-11T14:55:03.119Z,5.08
2018-10-11T14:57:30.334Z,4.65
2018-10-11T14:59:57.513Z,4.90
2018-10-11T15:02:24.748Z,4.95
2018-10-11T15:04:51.954Z,5.00
2018-10-11T15:07:19.288Z,4.92
2018-10-11T15:09:46.599Z,4.70
2018-10-11T15:12:13.854Z,4.87
2018-10-11T15:14:41.133Z,4.95
2018-10-11T15:17:10.657Z,4.28
2018-10-11T15:19:37.905Z,4.40
2018-10-11T15:22:05.171Z,5.03
2018-10-11T15:24:32.432Z,4.80
2018-10-11T15:26:59.625Z,4.70
2018-10-11T15:29:27.006Z,4.20
2018-10-11T15:31:54.241Z,4.15
2018-10-11T15:34:21.581Z,5.87
2018-10-11T15:36:48.749Z,4.62
2018-10-11T15:39:15.993Z,4.62
2018-10-11T15:41:43.254Z,4.37
2018-10-11T15:44:11.203Z,4.50
2018-10-11T15:46:38.491Z,4.92
2018-10-11T15:49:05.915Z,5.00
2018-10-11T15:51:33.154Z,4.50
2018-10-11T15:54:00.396Z,4.37
2018-10-11T15:56:27.729Z,4.87
2018-10-11T15:58:55.044Z,4.87
2018-10-11T16:01:22.318Z,5.03
2018-10-11T16:03:49.534Z,4.62
2018-10-11T16:06:16.808Z,4.80
2018-10-11T16:08:44.098Z,4.60
2018-10-11T16:11:11.269Z,5.40
2018-10-11T16:13:38.504Z,5.47
2018-10-11T16:16:05.752Z,5.03
2018-10-11T16:18:32.977Z,5.90
2018-10-11T16:21:00.209Z,7.20
2018-10-11T16:23:27.457Z,5.80
2018-10-11T16:25:54.662Z,5.67
2018-10-11T16:28:21.930Z,4.97
2018-10-11T16:30:49.161Z,5.05
2018-10-11T16:33:16.408Z,4.95
2018-10-11T16:35:43.652Z,5.08
2018-10-11T16:38:10.981Z,4.85
2018-10-11T16:40:38.170Z,4.85
2018-10-11T16:43:05.413Z,5.17
2018-10-11T16:45:32.743Z,5.55
2018-10-11T16:47:59.994Z,5.33
2018-10-11T16:50:27.251Z,4.40
2018-10-11T16:52:54.514Z,5.40
2018-10-11T16:55:21.735Z,5.20
2018-10-11T16:57:48.979Z,5.42
2018-10-11T17:00:16.144Z,5.92
2018-10-11T17:02:43.543Z,5.87
2018-10-11T17:05:10.777Z,8.25
2018-10-11T17:07:38.053Z,8.03
2018-10-11T17:10:05.280Z,7.70
2018-10-11T17:12:32.529Z,7.97
2018-10-11T17:14:59.798Z,7.75
2018-10-11T17:17:26.993Z,9.40
2018-10-11T17:19:54.252Z,9.15
2018-10-11T17:22:21.483Z,7.97
2018-10-11T17:24:48.721Z,5.53
2018-10-11T17:27:15.925Z,5.70
2018-10-11T17:29:43.247Z,5.37
2018-10-11T17:32:10.401Z,5.83
2018-10-11T17:34:37.652Z,6.40
2018-10-11T17:37:05.177Z,6.27
2018-10-11T17:39:32.445Z,6.10
2018-10-11T17:41:59.712Z,6.20
2018-10-11T17:44:26.925Z,7.07
2018-10-11T17:46:54.090Z,6.33
2018-10-11T17:49:21.317Z,7.13
2018-10-11T17:51:48.529Z,6.80
2018-10-11T17:54:15.720Z,6.93
2018-10-11T17:56:42.980Z,6.23
2018-10-11T17:59:10.152Z,6.13
2018-10-11T18:01:37.328Z,5.30
2018-10-11T18:04:04.617Z,6.57
2018-10-11T18:06:31.879Z,6.37
2018-10-11T18:08:59.128Z,6.17
2018-10-11T18:11:26.318Z,6.53
2018-10-11T18:13:53.594Z,7.20
2018-10-11T18:16:20.835Z,7.17
2018-10-11T18:18:48.045Z,6.70
2018-10-11T18:21:15.233Z,7.53
2018-10-11T18:23:42.545Z,7.40
2018-10-11T18:26:09.864Z,7.43
2018-10-11T18:28:37.167Z,7.00
2018-10-11T18:31:04.343Z,9.23
2018-10-11T18:33:31.590Z,10.13
2018-10-11T18:35:58.831Z,9.80
2018-10-11T18:38:26.051Z,8.60
2018-10-11T18:40:53.297Z,8.23
2018-10-11T18:43:20.755Z,13.87
2018-10-11T18:45:47.986Z,12.30
2018-10-11T18:48:15.209Z,12.97
2018-10-11T18:50:42.512Z,13.20
2018-10-11T18:53:09.719Z,12.93
2018-10-11T18:55:37.016Z,12.93
2018-10-11T18:58:04.291Z,11.00
2018-10-11T19:00:31.457Z,11.00
2018-10-11T19:02:58.696Z,12.70
2018-10-11T19:05:25.945Z,15.77
2018-10-11T19:07:53.266Z,16.30
2018-10-11T19:10:20.457Z,13.03
2018-10-11T19:12:47.682Z,12.57
2018-10-11T19:15:14.950Z,18.27
2018-10-11T19:17:42.193Z,15.27
2018-10-11T19:20:09.442Z,10.90
2018-10-11T19:22:36.674Z,13.63
2018-10-11T19:25:03.922Z,11.70
2018-10-11T19:27:31.176Z,13.90
2018-10-11T19:29:58.409Z,8.80
2018-10-11T19:32:25.657Z,9.37
2018-10-11T19:34:52.893Z,8.80
2018-10-11T19:37:20.146Z,10.23
2018-10-11T19:39:47.385Z,17.03
2018-10-11T19:42:14.614Z,11.47
2018-10-11T19:44:41.827Z,10.30
2018-10-11T19:47:09.130Z,9.93
2018-10-11T19:49:36.398Z,10.00
2018-10-11T19:52:03.616Z,11.37
2018-10-11T19:54:30.839Z,10.70
2018-10-11T19:56:58.084Z,10.43
2018-10-11T19:59:25.305Z,9.23
2018-10-11T20:01:52.645Z,10.50
2018-10-11T20:04:19.880Z,10.57
2018-10-11T20:06:47.104Z,10.03
2018-10-11T20:09:14.392Z,11.00
2018-10-11T20:11:41.594Z,9.67
2018-10-11T20:14:08.840Z,10.43
2018-10-11T20:16:36.062Z,10.37
2018-10-11T20:19:03.297Z,10.43
2018-10-11T20:21:30.458Z,10.00
2018-10-11T20:23:57.707Z,10.23
2018-10-11T20:26:24.931Z,11.47
2018-10-11T20:28:52.179Z,12.80
2018-10-11T20:31:19.409Z,12.53
2018-10-11T20:33:46.649Z,12.70
2018-10-11T20:36:13.911Z,12.17
2018-10-11T20:38:41.177Z,11.40
2018-10-11T20:41:08.486Z,11.77
2018-10-11T20:43:35.828Z,13.83
2018-10-11T20:46:02.966Z,14.60
2018-10-11T20:48:30.260Z,13.87
2018-10-11T20:50:57.531Z,11.90
2018-10-11T20:53:24.704Z,11.00
2018-10-11T20:55:51.945Z,12.27
2018-10-11T20:58:19.197Z,10.70
2018-10-11T21:00:46.503Z,11.50
2018-10-11T21:03:13.745Z,16.13
2018-10-11T21:05:41.089Z,12.27
2018-10-11T21:08:08.325Z,10.87
2018-10-11T21:10:35.562Z,11.90
2018-10-11T21:13:02.807Z,11.10
2018-10-11T21:15:30.008Z,11.57
2018-10-11T21:17:57.221Z,10.63
2018-10-11T21:20:24.641Z,10.70
2018-10-11T21:22:51.905Z,10.60
2018-10-11T21:25:19.174Z,9.23
2018-10-11T21:27:46.397Z,11.10
2018-10-11T21:30:13.660Z,13.60
2018-10-11T21:32:40.889Z,14.17
2018-10-11T21:35:08.117Z,12.00
2018-10-11T21:37:35.436Z,11.90
2018-10-11T21:40:03.018Z,11.17
2018-10-11T21:42:30.239Z,11.10
2018-10-11T21:44:57.477Z,10.97
2018-10-11T21:47:24.660Z,11.30
2018-10-11T21:49:51.890Z,11.57
2018-10-11T21:52:19.142Z,11.33
2018-10-11T21:54:46.441Z,10.80
2018-10-11T21:57:13.670Z,11.27
2018-10-11T21:59:40.979Z,10.87
2018-10-11T22:02:08.140Z,10.93
2018-10-11T22:04:35.378Z,10.70
2018-10-11T22:07:02.548Z,10.27
2018-10-11T22:09:29.829Z,10.80
2018-10-11T22:11:57.053Z,10.70
2018-10-11T22:14:24.517Z,10.87
2018-10-11T22:16:51.778Z,10.43
2018-10-11T22:19:19.016Z,8.97
2018-10-11T22:21:46.288Z,10.10
2018-10-11T22:24:13.558Z,10.53
2018-10-11T22:26:40.789Z,10.53
2018-10-11T22:29:07.971Z,10.70
2018-10-11T22:31:35.137Z,10.70
2018-10-11T22:34:02.372Z,10.93
2018-10-11T22:36:29.643Z,10.57
2018-10-11T22:38:56.870Z,10.30
2018-10-11T22:41:24.137Z,10.20
2018-10-11T22:43:51.389Z,11.20
2018-10-11T22:46:18.600Z,10.63
2018-10-11T22:48:45.808Z,11.43
2018-10-11T22:51:13.024Z,10.23
2018-10-11T22:53:40.605Z,10.40
2018-10-11T22:56:07.821Z,11.93
2018-10-11T22:58:35.059Z,10.73
2018-10-11T23:01:02.288Z,10.23
2018-10-11T23:03:29.521Z,11.23
2018-10-11T23:05:56.762Z,11.17
2018-10-11T23:08:24.033Z,10.33
2018-10-11T23:10:51.216Z,11.13
2018-10-11T23:13:18.472Z,10.83
2018-10-11T23:15:45.681Z,11.53
2018-10-11T23:18:12.884Z,12.03
2018-10-11T23:20:40.318Z,11.43
2018-10-11T23:23:07.554Z,11.80
2018-10-11T23:25:34.733Z,11.53
2018-10-11T23:28:01.952Z,14.47
2018-10-11T23:30:29.206Z,16.60
2018-10-11T23:32:56.454Z,13.00
2018-10-11T23:35:23.685Z,22.33
2018-10-11T23:37:50.934Z,14.97
2018-10-11T23:40:18.113Z,13.60
2018-10-11T23:42:45.295Z,12.57
2018-10-11T23:45:12.528Z,12.50
2018-10-11T23:47:40.332Z,11.10
2018-10-11T23:50:07.559Z,10.90
2018-10-11T23:52:34.800Z,11.70
2018-10-11T23:55:02.080Z,12.53
2018-10-11T23:57:29.315Z,11.43
2018-10-11T23:59:56.560Z,12.23
